Terminal Aerodrome Forecast
Issued by NWS Wakefield, VA

Home | Current Version | Previous Version | Text Only | Print | Product List | Glossary On
Versions: 1 2 3 4 5 6 7 8 9 10 11 12 13
713
FTUS41 KAKQ 132326
TAFECG
TAF
KECG 132326Z 1400/1424 24007KT P6SM SCT250
     FM140400 21011KT P6SM BKN120
     FM141300 25013G20KT P6SM SKC
     FM141900 29012KT P6SM SKC
     FM142200 31007KT P6SM SKC=

USA.gov is the U.S. government's official web portal to all federal, state and local government web resources and services.